createdAt,value
2022-10-31T00:03:46.000Z,0
2022-10-31T00:06:31.000Z,0
2022-10-31T00:09:16.000Z,0
2022-10-31T00:12:00.000Z,0
2022-10-31T00:14:45.000Z,0
2022-10-31T00:17:30.000Z,0
2022-10-31T00:18:47.000Z,0
2022-10-31T00:22:59.000Z,0
2022-10-31T00:25:43.000Z,0
2022-10-31T00:28:28.000Z,0
2022-10-31T00:31:13.000Z,0
2022-10-31T00:33:57.000Z,0
2022-10-31T00:39:27.000Z,0
2022-10-31T00:42:11.000Z,0
2022-10-31T00:44:56.000Z,0
2022-10-31T00:46:14.000Z,0
2022-10-31T00:47:41.000Z,0
2022-10-31T00:50:25.000Z,0
2022-10-31T00:55:54.000Z,0
2022-10-31T00:58:39.000Z,0
2022-10-31T01:01:24.000Z,0
2022-10-31T01:04:08.000Z,0
2022-10-31T01:06:53.000Z,0
2022-10-31T01:09:38.000Z,0
2022-10-31T01:13:40.000Z,0
2022-10-31T01:15:07.000Z,0
2022-10-31T01:17:52.000Z,0
2022-10-31T01:20:36.000Z,0
2022-10-31T01:23:21.000Z,0
2022-10-31T01:26:06.000Z,0
2022-10-31T01:28:50.000Z,0
2022-10-31T01:31:35.000Z,0
2022-10-31T01:34:19.000Z,0
2022-10-31T01:37:04.000Z,0
2022-10-31T01:39:49.000Z,0
2022-10-31T01:41:07.000Z,0
2022-10-31T01:42:33.000Z,0
2022-10-31T01:45:18.000Z,0
2022-10-31T01:48:03.000Z,0
2022-10-31T01:51:04.000Z,0
2022-10-31T01:53:48.000Z,0
2022-10-31T01:56:33.000Z,0
2022-10-31T02:02:02.000Z,0
2022-10-31T02:04:47.000Z,0
2022-10-31T02:07:32.000Z,0
2022-10-31T02:08:49.000Z,0
2022-10-31T02:10:16.000Z,0
2022-10-31T02:13:01.000Z,0
2022-10-31T02:16:02.000Z,0
2022-10-31T02:18:46.000Z,0
2022-10-31T02:21:31.000Z,0
2022-10-31T02:24:16.000Z,0
2022-10-31T02:27:00.000Z,0
2022-10-31T02:29:45.000Z,0
2022-10-31T02:32:30.000Z,0
2022-10-31T02:35:14.000Z,0
2022-10-31T02:36:32.000Z,0
2022-10-31T02:37:59.000Z,0
2022-10-31T02:40:44.000Z,0
2022-10-31T02:43:28.000Z,0
2022-10-31T02:46:13.000Z,0
2022-10-31T02:49:14.000Z,0
2022-10-31T02:51:59.000Z,0
2022-10-31T02:54:43.000Z,0
2022-10-31T02:57:28.000Z,0
2022-10-31T03:00:12.000Z,0
2022-10-31T03:02:57.000Z,0
2022-10-31T03:04:15.000Z,0
2022-10-31T03:05:42.000Z,0
2022-10-31T03:08:26.000Z,0
2022-10-31T03:11:11.000Z,0
2022-10-31T03:13:56.000Z,0
2022-10-31T03:16:40.000Z,0
2022-10-31T03:19:25.000Z,0
2022-10-31T03:22:10.000Z,0
2022-10-31T03:24:54.000Z,0
2022-10-31T03:27:39.000Z,0
2022-10-31T03:30:23.000Z,0
2022-10-31T03:31:41.000Z,0
2022-10-31T03:33:08.000Z,0
2022-10-31T03:35:53.000Z,0
2022-10-31T03:38:37.000Z,0
2022-10-31T03:41:22.000Z,0
2022-10-31T03:44:07.000Z,0
2022-10-31T03:46:51.000Z,0
2022-10-31T03:49:36.000Z,0
2022-10-31T03:52:21.000Z,0
2022-10-31T03:55:05.000Z,0
2022-10-31T03:57:50.000Z,0
2022-10-31T03:59:08.000Z,0
2022-10-31T04:00:35.000Z,0
2022-10-31T04:03:19.000Z,0
2022-10-31T04:06:04.000Z,0
2022-10-31T04:08:48.000Z,0
2022-10-31T04:11:33.000Z,0
2022-10-31T04:14:18.000Z,0
2022-10-31T04:17:02.000Z,0
2022-10-31T04:19:47.000Z,0
2022-10-31T04:22:32.000Z,0
2022-10-31T04:25:16.000Z,0
2022-10-31T04:26:34.000Z,0
2022-10-31T04:28:01.000Z,0
2022-10-31T04:30:46.000Z,0
2022-10-31T04:33:30.000Z,0
2022-10-31T04:36:15.000Z,0
2022-10-31T04:39:00.000Z,0
2022-10-31T04:41:44.000Z,0
2022-10-31T04:44:29.000Z,0
2022-10-31T04:47:13.000Z,0
2022-10-31T04:49:58.000Z,0
2022-10-31T04:52:43.000Z,0
2022-10-31T04:54:00.000Z,0
2022-10-31T04:55:27.000Z,0
2022-10-31T04:58:12.000Z,0
2022-10-31T05:00:57.000Z,0
2022-10-31T05:03:41.000Z,0
2022-10-31T05:06:26.000Z,0
2022-10-31T05:11:55.000Z,0
2022-10-31T05:14:40.000Z,0
2022-10-31T05:17:24.000Z,0
2022-10-31T05:20:09.000Z,0
2022-10-31T05:21:27.000Z,0
2022-10-31T05:22:54.000Z,0
2022-10-31T05:25:38.000Z,0
2022-10-31T05:28:23.000Z,0
2022-10-31T05:31:08.000Z,0
2022-10-31T05:33:52.000Z,0
2022-10-31T05:36:37.000Z,0
2022-10-31T05:39:22.000Z,0
2022-10-31T05:42:06.000Z,0
2022-10-31T05:44:51.000Z,0
2022-10-31T05:47:36.000Z,0
2022-10-31T05:48:53.000Z,0
2022-10-31T05:50:20.000Z,0
2022-10-31T05:53:05.000Z,4
2022-10-31T05:55:49.000Z,4
2022-10-31T05:58:34.000Z,4
2022-10-31T06:01:19.000Z,4
2022-10-31T06:04:03.000Z,12
2022-10-31T06:06:48.000Z,20
2022-10-31T06:09:33.000Z,24
2022-10-31T06:12:17.000Z,44
2022-10-31T06:15:02.000Z,60
2022-10-31T06:16:20.000Z,80
2022-10-31T06:17:47.000Z,88
2022-10-31T06:23:16.000Z,128
2022-10-31T06:26:00.000Z,148
2022-10-31T06:28:45.000Z,176
2022-10-31T06:31:30.000Z,220
2022-10-31T06:34:14.000Z,268
2022-10-31T06:36:59.000Z,332
2022-10-31T06:39:44.000Z,408
2022-10-31T06:42:28.000Z,468
2022-10-31T06:43:46.000Z,552
2022-10-31T06:45:13.000Z,632
2022-10-31T06:47:58.000Z,712
2022-10-31T06:50:42.000Z,740
2022-10-31T06:53:27.000Z,808
2022-10-31T06:56:12.000Z,892
2022-10-31T06:58:56.000Z,1048
2022-10-31T07:01:41.000Z,1240
2022-10-31T07:04:25.000Z,1488
2022-10-31T07:07:10.000Z,1584
2022-10-31T07:09:55.000Z,1684
2022-10-31T07:11:13.000Z,1796
2022-10-31T07:12:39.000Z,1840
2022-10-31T07:15:24.000Z,1928
2022-10-31T07:18:09.000Z,2248
2022-10-31T07:20:53.000Z,2496
2022-10-31T07:23:38.000Z,2704
2022-10-31T07:26:23.000Z,2600
2022-10-31T07:29:07.000Z,2596
2022-10-31T07:31:52.000Z,2280
2022-10-31T07:34:37.000Z,3432
2022-10-31T07:37:21.000Z,3512
2022-10-31T07:38:39.000Z,3624
2022-10-31T07:40:06.000Z,3628
2022-10-31T07:42:50.000Z,3900
2022-10-31T07:45:35.000Z,3612
2022-10-31T07:48:20.000Z,4908
2022-10-31T07:51:04.000Z,7808
2022-10-31T07:53:49.000Z,6260
2022-10-31T07:56:34.000Z,6976
2022-10-31T07:59:18.000Z,7024
2022-10-31T08:02:03.000Z,5216
2022-10-31T08:04:48.000Z,5132
2022-10-31T08:06:05.000Z,5080
2022-10-31T08:07:32.000Z,5092
2022-10-31T08:10:17.000Z,5184
2022-10-31T08:13:01.000Z,6028
2022-10-31T08:15:46.000Z,7872
2022-10-31T08:18:31.000Z,8760
2022-10-31T08:21:15.000Z,10424
2022-10-31T08:24:00.000Z,12888
2022-10-31T08:26:45.000Z,9680
2022-10-31T08:29:29.000Z,7908
2022-10-31T08:32:14.000Z,7948
2022-10-31T08:33:32.000Z,8340
2022-10-31T08:34:59.000Z,8644
2022-10-31T08:37:43.000Z,8256
2022-10-31T08:40:28.000Z,6472
2022-10-31T08:43:13.000Z,7300
2022-10-31T08:45:57.000Z,8844
2022-10-31T08:48:42.000Z,9212
2022-10-31T08:51:26.000Z,15680
2022-10-31T08:54:11.000Z,14356
2022-10-31T08:56:56.000Z,17984
2022-10-31T08:59:40.000Z,27712
2022-10-31T09:00:58.000Z,29408
2022-10-31T09:02:25.000Z,24672
2022-10-31T09:05:10.000Z,21856
2022-10-31T09:07:54.000Z,33536
2022-10-31T09:10:39.000Z,24384
2022-10-31T09:13:24.000Z,21824
2022-10-31T09:18:53.000Z,21696
2022-10-31T09:21:37.000Z,14536
2022-10-31T09:24:22.000Z,20512
2022-10-31T09:28:25.000Z,26144
2022-10-31T09:29:51.000Z,29280
2022-10-31T09:32:36.000Z,31648
2022-10-31T09:35:21.000Z,32704
2022-10-31T09:38:05.000Z,28160
2022-10-31T09:40:50.000Z,15328
2022-10-31T09:43:35.000Z,11280
2022-10-31T09:46:19.000Z,10912
2022-10-31T09:49:04.000Z,13488
2022-10-31T09:51:49.000Z,9260
2022-10-31T09:55:51.000Z,8752
2022-10-31T09:57:18.000Z,9280
2022-10-31T10:00:19.000Z,7184
2022-10-31T10:03:03.000Z,6148
2022-10-31T10:05:48.000Z,6092
2022-10-31T10:11:17.000Z,5836
2022-10-31T10:14:02.000Z,5584
2022-10-31T10:16:47.000Z,5812
2022-10-31T10:19:31.000Z,5460
2022-10-31T10:22:16.000Z,5740
2022-10-31T10:23:34.000Z,6340
2022-10-31T10:25:01.000Z,6508
2022-10-31T10:27:45.000Z,6648
2022-10-31T10:30:30.000Z,6908
2022-10-31T10:33:15.000Z,7552
2022-10-31T10:35:59.000Z,9480
2022-10-31T10:38:44.000Z,8548
2022-10-31T10:41:28.000Z,8024
2022-10-31T10:44:13.000Z,7256
2022-10-31T10:46:58.000Z,7088
2022-10-31T10:49:43.000Z,6516
2022-10-31T10:51:00.000Z,6396
2022-10-31T10:52:43.000Z,5784
2022-10-31T10:55:28.000Z,5840
2022-10-31T10:58:13.000Z,5844
2022-10-31T11:03:42.000Z,5548
2022-10-31T11:06:27.000Z,5288
2022-10-31T11:09:11.000Z,5256
2022-10-31T11:11:56.000Z,5012
2022-10-31T11:14:41.000Z,4848
2022-10-31T11:18:43.000Z,6392
2022-10-31T11:20:26.000Z,5868
2022-10-31T11:23:11.000Z,6016
2022-10-31T11:25:55.000Z,6384
2022-10-31T11:28:40.000Z,6828
2022-10-31T11:34:09.000Z,4864
2022-10-31T11:36:54.000Z,4936
2022-10-31T11:39:39.000Z,5144
2022-10-31T11:42:23.000Z,5048
2022-10-31T11:46:26.000Z,4732
2022-10-31T11:47:53.000Z,4812
2022-10-31T11:50:54.000Z,4820
2022-10-31T11:56:23.000Z,4804
2022-10-31T11:59:08.000Z,4164
2022-10-31T12:01:52.000Z,4152
2022-10-31T12:04:37.000Z,3912
2022-10-31T12:07:21.000Z,3880
2022-10-31T12:10:06.000Z,3692
2022-10-31T12:12:51.000Z,3460
2022-10-31T12:14:08.000Z,3320
2022-10-31T12:15:35.000Z,3240
2022-10-31T12:18:20.000Z,3232
2022-10-31T12:21:05.000Z,3216
2022-10-31T12:23:49.000Z,3352
2022-10-31T12:32:03.000Z,3416
2022-10-31T12:34:48.000Z,3228
2022-10-31T12:37:33.000Z,3172
2022-10-31T12:40:17.000Z,3172
2022-10-31T12:41:35.000Z,2944
2022-10-31T12:43:02.000Z,2848
2022-10-31T12:45:46.000Z,2736
2022-10-31T12:48:31.000Z,2608
2022-10-31T12:51:16.000Z,2656
2022-10-31T12:54:00.000Z,2476
2022-10-31T12:56:45.000Z,2268
2022-10-31T13:02:14.000Z,2024
2022-10-31T13:04:59.000Z,1944
2022-10-31T13:07:44.000Z,1992
2022-10-31T13:09:01.000Z,2092
2022-10-31T13:13:13.000Z,2008
2022-10-31T13:18:42.000Z,1852
2022-10-31T13:21:27.000Z,1832
2022-10-31T13:26:56.000Z,2024
2022-10-31T13:29:41.000Z,2168
2022-10-31T13:32:25.000Z,2180
2022-10-31T13:35:10.000Z,2176
2022-10-31T13:36:28.000Z,2172
2022-10-31T13:37:55.000Z,2128
2022-10-31T13:40:39.000Z,2112
2022-10-31T13:46:09.000Z,1900
2022-10-31T13:54:06.000Z,1648
2022-10-31T13:56:51.000Z,1652
2022-10-31T13:59:35.000Z,1696
2022-10-31T14:03:54.000Z,1652
2022-10-31T14:05:12.000Z,1636
2022-10-31T14:10:41.000Z,1548
2022-10-31T14:13:26.000Z,1416
2022-10-31T14:18:55.000Z,1256
2022-10-31T14:21:40.000Z,1204
2022-10-31T14:24:24.000Z,1200
2022-10-31T14:27:09.000Z,1184
2022-10-31T14:31:21.000Z,1128
2022-10-31T14:32:38.000Z,1120
2022-10-31T14:35:23.000Z,1112
2022-10-31T14:38:08.000Z,1108
2022-10-31T14:40:52.000Z,1084
2022-10-31T14:43:37.000Z,1004
2022-10-31T14:46:21.000Z,924
2022-10-31T14:49:06.000Z,872
2022-10-31T14:51:51.000Z,852
2022-10-31T14:57:20.000Z,804
2022-10-31T15:00:05.000Z,816
2022-10-31T15:05:34.000Z,848
2022-10-31T15:08:19.000Z,872
2022-10-31T15:11:03.000Z,840
2022-10-31T15:13:48.000Z,816
2022-10-31T15:16:33.000Z,784
2022-10-31T15:19:17.000Z,764
2022-10-31T15:22:02.000Z,736
2022-10-31T15:26:13.000Z,688
2022-10-31T15:27:31.000Z,680
2022-10-31T15:30:16.000Z,668
2022-10-31T15:33:00.000Z,640
2022-10-31T15:35:45.000Z,596
2022-10-31T15:40:58.000Z,512
2022-10-31T15:43:43.000Z,356
2022-10-31T15:49:12.000Z,240
2022-10-31T15:51:57.000Z,196
2022-10-31T15:53:40.000Z,152
2022-10-31T15:54:58.000Z,132
2022-10-31T15:57:42.000Z,112
2022-10-31T16:00:27.000Z,88
2022-10-31T16:03:11.000Z,68
2022-10-31T16:05:56.000Z,52
2022-10-31T16:08:41.000Z,36
2022-10-31T16:16:38.000Z,16
2022-10-31T16:19:23.000Z,8
2022-10-31T16:21:06.000Z,4
2022-10-31T16:22:24.000Z,4
2022-10-31T16:27:53.000Z,4
2022-10-31T16:30:38.000Z,0
2022-10-31T16:33:23.000Z,0
2022-10-31T16:36:07.000Z,0
2022-10-31T16:38:52.000Z,0
2022-10-31T16:41:36.000Z,0
2022-10-31T16:44:21.000Z,0
2022-10-31T16:47:06.000Z,0
2022-10-31T16:48:33.000Z,0
2022-10-31T16:52:35.000Z,0
2022-10-31T16:55:20.000Z,0
2022-10-31T16:58:04.000Z,0
2022-10-31T17:00:49.000Z,0
2022-10-31T17:03:34.000Z,0
2022-10-31T17:06:18.000Z,0
2022-10-31T17:17:17.000Z,0
2022-10-31T17:20:01.000Z,0
2022-10-31T17:22:46.000Z,0
2022-10-31T17:25:31.000Z,0
2022-10-31T17:31:00.000Z,0
2022-10-31T17:33:45.000Z,0
2022-10-31T17:36:29.000Z,0
2022-10-31T17:39:14.000Z,0
2022-10-31T17:41:59.000Z,0
2022-10-31T17:43:26.000Z,0
2022-10-31T17:50:13.000Z,0
2022-10-31T17:52:57.000Z,0
2022-10-31T17:58:10.000Z,0
2022-10-31T18:00:55.000Z,0
2022-10-31T18:03:39.000Z,0
2022-10-31T18:10:52.000Z,0
2022-10-31T18:12:10.000Z,0
2022-10-31T18:14:54.000Z,0
2022-10-31T18:17:39.000Z,0
2022-10-31T18:20:24.000Z,0
2022-10-31T18:23:08.000Z,0
2022-10-31T18:25:53.000Z,0
2022-10-31T18:28:38.000Z,0
2022-10-31T18:33:50.000Z,0
2022-10-31T18:36:35.000Z,0
2022-10-31T18:38:18.000Z,0
2022-10-31T18:39:36.000Z,0
2022-10-31T18:42:21.000Z,0
2022-10-31T18:45:05.000Z,0
2022-10-31T18:47:50.000Z,0
2022-10-31T18:50:35.000Z,0
2022-10-31T18:53:19.000Z,0
2022-10-31T18:56:04.000Z,0
2022-10-31T18:58:49.000Z,0
2022-10-31T19:01:33.000Z,0
2022-10-31T19:04:18.000Z,0
2022-10-31T19:05:45.000Z,0
2022-10-31T19:07:03.000Z,0
2022-10-31T19:10:04.000Z,0
2022-10-31T19:12:48.000Z,0
2022-10-31T19:15:33.000Z,0
2022-10-31T19:18:18.000Z,0
2022-10-31T19:21:02.000Z,0
2022-10-31T19:23:47.000Z,0
2022-10-31T19:26:32.000Z,0
2022-10-31T19:29:16.000Z,0
2022-10-31T19:32:01.000Z,0
2022-10-31T19:33:19.000Z,0
2022-10-31T19:34:45.000Z,0
2022-10-31T19:37:30.000Z,0
2022-10-31T19:40:15.000Z,0
2022-10-31T19:42:59.000Z,0
2022-10-31T19:45:44.000Z,0
2022-10-31T19:48:29.000Z,0
2022-10-31T19:51:13.000Z,0
2022-10-31T19:53:58.000Z,0
2022-10-31T19:56:43.000Z,0
2022-10-31T19:59:27.000Z,0
2022-10-31T20:00:45.000Z,0
2022-10-31T20:02:12.000Z,0
2022-10-31T20:04:56.000Z,0
2022-10-31T20:07:41.000Z,0
2022-10-31T20:12:54.000Z,0
2022-10-31T20:15:39.000Z,0
2022-10-31T20:18:23.000Z,0
2022-10-31T20:21:08.000Z,0
2022-10-31T20:23:53.000Z,0
2022-10-31T20:26:37.000Z,0
2022-10-31T20:28:11.000Z,0
2022-10-31T20:29:29.000Z,0
2022-10-31T20:32:14.000Z,0
2022-10-31T20:34:58.000Z,0
2022-10-31T20:37:43.000Z,0
2022-10-31T20:40:28.000Z,0
2022-10-31T20:43:12.000Z,0
2022-10-31T20:51:10.000Z,0
2022-10-31T20:55:38.000Z,0
2022-10-31T20:56:55.000Z,0
2022-10-31T20:59:40.000Z,0
2022-10-31T21:02:25.000Z,0
2022-10-31T21:05:09.000Z,0
2022-10-31T21:07:54.000Z,0
2022-10-31T21:13:23.000Z,0
2022-10-31T21:16:08.000Z,0
2022-10-31T21:18:53.000Z,0
2022-10-31T21:23:04.000Z,0
2022-10-31T21:24:22.000Z,0
2022-10-31T21:27:23.000Z,0
2022-10-31T21:30:08.000Z,0
2022-10-31T21:32:53.000Z,0
2022-10-31T21:38:22.000Z,0
2022-10-31T21:41:06.000Z,0
2022-10-31T21:43:51.000Z,0
2022-10-31T21:46:36.000Z,0
2022-10-31T21:49:20.000Z,0
2022-10-31T21:50:38.000Z,0
2022-10-31T21:52:05.000Z,0
2022-10-31T21:54:50.000Z,0
2022-10-31T21:57:34.000Z,0
2022-10-31T22:03:04.000Z,0
2022-10-31T22:05:48.000Z,0
2022-10-31T22:08:33.000Z,0
2022-10-31T22:11:18.000Z,0
2022-10-31T22:14:02.000Z,0
2022-10-31T22:16:47.000Z,0
2022-10-31T22:18:05.000Z,0
2022-10-31T22:19:31.000Z,0
2022-10-31T22:22:16.000Z,0
2022-10-31T22:25:01.000Z,0
2022-10-31T22:30:14.000Z,0
2022-10-31T22:35:43.000Z,0
2022-10-31T22:38:28.000Z,0
2022-10-31T22:41:12.000Z,0
2022-10-31T22:43:57.000Z,0
2022-10-31T22:45:31.000Z,0
2022-10-31T22:46:49.000Z,0
2022-10-31T22:49:33.000Z,0
2022-10-31T22:52:18.000Z,0
2022-10-31T22:55:03.000Z,0
2022-10-31T22:57:47.000Z,0
2022-10-31T23:00:32.000Z,0
2022-10-31T23:05:45.000Z,0
2022-10-31T23:08:29.000Z,0
2022-10-31T23:11:14.000Z,0
2022-10-31T23:12:57.000Z,0
2022-10-31T23:14:15.000Z,0
2022-10-31T23:17:16.000Z,0
2022-10-31T23:20:01.000Z,0
2022-10-31T23:22:46.000Z,0
2022-10-31T23:25:30.000Z,0
2022-10-31T23:28:15.000Z,0
2022-10-31T23:30:59.000Z,0
2022-10-31T23:33:44.000Z,0
2022-10-31T23:36:29.000Z,0
2022-10-31T23:39:13.000Z,0
2022-10-31T23:40:31.000Z,0
2022-10-31T23:41:58.000Z,0
2022-10-31T23:44:43.000Z,0
2022-10-31T23:47:27.000Z,0
2022-10-31T23:50:12.000Z,0
2022-10-31T23:52:57.000Z,0
2022-10-31T23:55:41.000Z,0
2022-10-31T23:58:26.000Z,0
